createdAt,value
2022-11-03T00:01:50.215Z,3.90
2022-11-03T00:04:20.676Z,2.95
2022-11-03T00:06:54.720Z,3.83
2022-11-03T00:09:27.208Z,3.20
2022-11-03T00:11:55.656Z,2.77
2022-11-03T00:14:24.063Z,2.65
2022-11-03T00:16:52.320Z,2.72
2022-11-03T00:19:20.471Z,3.20
2022-11-03T00:21:49.945Z,3.03
2022-11-03T00:24:18.082Z,3.30
2022-11-03T00:26:47.923Z,2.90
2022-11-03T00:29:16.869Z,3.20
2022-11-03T00:31:45.984Z,3.22
2022-11-03T00:34:14.380Z,2.67
2022-11-03T00:36:44.373Z,3.25
2022-11-03T00:39:13.053Z,2.95
2022-11-03T00:41:41.969Z,3.33
2022-11-03T00:44:13.403Z,3.40
2022-11-03T00:46:41.664Z,2.95
2022-11-03T00:49:09.707Z,3.08
2022-11-03T00:51:38.022Z,3.10
2022-11-03T00:54:07.271Z,2.42
2022-11-03T00:56:37.388Z,3.53
2022-11-03T00:59:07.387Z,2.75
2022-11-03T01:01:45.256Z,3.08
2022-11-03T01:04:32.934Z,3.00
2022-11-03T01:07:02.192Z,2.95
2022-11-03T01:09:32.211Z,2.65
2022-11-03T01:12:02.966Z,3.00
2022-11-03T01:14:34.252Z,3.42
2022-11-03T01:17:05.639Z,3.10
2022-11-03T01:19:34.004Z,2.85
2022-11-03T01:22:06.348Z,3.05
2022-11-03T01:24:37.987Z,3.17
2022-11-03T01:27:06.237Z,2.70
2022-11-03T01:29:34.498Z,2.95
2022-11-03T01:32:04.365Z,2.80
2022-11-03T01:34:32.897Z,2.88
2022-11-03T01:37:01.041Z,3.35
2022-11-03T01:39:29.364Z,3.03
2022-11-03T01:41:57.932Z,3.15
2022-11-03T01:44:31.998Z,2.70
2022-11-03T01:47:13.175Z,3.10
2022-11-03T01:49:46.284Z,3.28
2022-11-03T01:52:19.741Z,3.40
2022-11-03T01:54:52.870Z,3.08
2022-11-03T01:57:24.969Z,3.47
2022-11-03T01:59:54.707Z,3.53
2022-11-03T02:02:24.259Z,2.67
2022-11-03T02:04:52.505Z,3.58
2022-11-03T02:07:26.181Z,3.15
2022-11-03T02:12:23.222Z,3.20
2022-11-03T02:14:55.767Z,2.80
2022-11-03T02:17:28.748Z,2.95
2022-11-03T02:20:00.464Z,3.35
2022-11-03T02:22:44.870Z,3.25
2022-11-03T02:25:36.976Z,2.67
2022-11-03T02:28:07.117Z,2.95
2022-11-03T02:30:40.207Z,3.08
2022-11-03T02:33:16.558Z,3.33
2022-11-03T02:35:49.883Z,3.20
2022-11-03T02:38:20.917Z,3.10
2022-11-03T02:40:54.928Z,2.90
2022-11-03T02:43:25.137Z,2.80
2022-11-03T02:45:54.291Z,3.58
2022-11-03T02:48:22.704Z,3.25
2022-11-03T02:50:50.745Z,3.17
2022-11-03T02:53:19.089Z,2.80
2022-11-03T02:55:56.681Z,2.67
2022-11-03T02:58:29.673Z,2.85
2022-11-03T03:01:04.633Z,2.78
2022-11-03T03:03:37.152Z,3.03
2022-11-03T03:06:10.598Z,3.70
2022-11-03T03:08:44.394Z,2.97
2022-11-03T03:11:14.825Z,3.00
2022-11-03T03:13:45.322Z,3.25
2022-11-03T03:16:17.863Z,3.65
2022-11-03T03:18:52.225Z,3.20
2022-11-03T03:21:24.498Z,3.13
2022-11-03T03:23:58.597Z,2.92
2022-11-03T03:26:32.371Z,3.10
2022-11-03T03:29:04.791Z,3.33
2022-11-03T03:31:37.951Z,3.50
2022-11-03T03:34:23.817Z,3.33
2022-11-03T03:36:59.355Z,2.80
2022-11-03T03:39:31.138Z,2.95
2022-11-03T03:42:04.132Z,3.75
2022-11-03T03:44:33.667Z,3.08
2022-11-03T03:47:04.991Z,3.15
2022-11-03T03:49:33.129Z,3.25
2022-11-03T03:52:01.849Z,2.90
2022-11-03T03:54:29.972Z,3.80
2022-11-03T03:57:03.928Z,3.05
2022-11-03T03:59:32.597Z,3.20
2022-11-03T04:02:00.813Z,3.10
2022-11-03T04:04:29.042Z,2.75
2022-11-03T04:07:11.154Z,3.30
2022-11-03T04:09:39.276Z,3.35
2022-11-03T04:12:26.660Z,3.25
2022-11-03T04:15:12.570Z,2.78
2022-11-03T04:18:02.493Z,3.30
2022-11-03T04:20:48.256Z,2.80
2022-11-03T04:23:17.042Z,3.13
2022-11-03T04:25:49.717Z,3.05
2022-11-03T04:28:19.387Z,2.92
2022-11-03T04:30:47.732Z,2.90
2022-11-03T04:33:17.612Z,2.80
2022-11-03T04:35:46.201Z,3.13
2022-11-03T04:38:25.022Z,3.28
2022-11-03T04:40:56.163Z,3.30
2022-11-03T04:43:32.678Z,2.60
2022-11-03T04:46:01.116Z,2.55
2022-11-03T04:48:30.369Z,2.92
2022-11-03T04:51:00.835Z,2.60
2022-11-03T04:53:34.135Z,3.10
2022-11-03T04:56:07.168Z,2.85
2022-11-03T04:58:37.975Z,3.00
2022-11-03T05:01:11.322Z,3.65
2022-11-03T05:03:40.840Z,2.97
2022-11-03T05:06:14.880Z,3.00
2022-11-03T05:08:45.087Z,2.72
2022-11-03T05:11:36.032Z,2.72
2022-11-03T05:14:15.517Z,3.03
2022-11-03T05:16:44.451Z,2.42
2022-11-03T05:19:17.331Z,2.67
2022-11-03T05:21:45.712Z,2.80
2022-11-03T05:26:49.501Z,3.20
2022-11-03T05:29:22.149Z,2.80
2022-11-03T05:31:52.286Z,2.92
2022-11-03T05:34:33.511Z,3.10
2022-11-03T05:37:09.100Z,3.55
2022-11-03T05:39:39.392Z,2.88
2022-11-03T05:42:26.579Z,3.30
2022-11-03T05:44:56.366Z,3.22
2022-11-03T05:47:28.557Z,3.78
2022-11-03T05:50:01.930Z,2.80
2022-11-03T05:52:30.765Z,2.80
2022-11-03T05:55:00.512Z,3.00
2022-11-03T05:57:30.954Z,3.55
2022-11-03T06:00:00.862Z,3.30
2022-11-03T06:02:38.693Z,3.60
2022-11-03T06:05:16.611Z,3.13
2022-11-03T06:07:45.247Z,3.22
2022-11-03T06:10:27.059Z,3.00
2022-11-03T06:13:00.361Z,3.35
2022-11-03T06:15:32.734Z,3.30
2022-11-03T06:18:02.052Z,3.00
2022-11-03T06:20:30.538Z,3.88
2022-11-03T06:22:58.634Z,3.33
2022-11-03T06:25:31.463Z,3.47
2022-11-03T06:28:04.268Z,3.90
2022-11-03T06:30:36.017Z,3.70
2022-11-03T06:33:15.017Z,3.70
2022-11-03T06:35:44.254Z,3.03
2022-11-03T06:38:19.186Z,3.60
2022-11-03T06:40:50.414Z,3.55
2022-11-03T06:43:22.004Z,3.78
2022-11-03T06:45:54.589Z,3.42
2022-11-03T06:48:28.597Z,3.53
2022-11-03T06:50:59.264Z,3.80
2022-11-03T06:53:30.695Z,4.10
2022-11-03T06:56:00.068Z,3.50
2022-11-03T06:58:31.776Z,3.80
2022-11-03T07:01:04.289Z,3.90
2022-11-03T07:03:35.370Z,3.50
2022-11-03T07:06:13.383Z,3.42
2022-11-03T07:08:44.665Z,3.83
2022-11-03T07:11:17.093Z,4.43
2022-11-03T07:13:45.406Z,3.80
2022-11-03T07:16:18.988Z,4.40
2022-11-03T07:18:48.768Z,4.40
2022-11-03T07:21:39.257Z,3.50
2022-11-03T07:24:16.859Z,3.38
2022-11-03T07:26:45.282Z,4.18
2022-11-03T07:29:22.162Z,4.45
2022-11-03T07:31:55.102Z,3.90
2022-11-03T07:34:27.206Z,3.50
2022-11-03T07:36:57.831Z,3.63
2022-11-03T07:39:29.053Z,3.42
2022-11-03T07:41:57.244Z,4.00
2022-11-03T07:44:26.417Z,3.50
2022-11-03T07:46:57.322Z,3.75
2022-11-03T07:49:30.008Z,3.90
2022-11-03T07:52:00.708Z,3.70
2022-11-03T07:54:31.974Z,3.63
2022-11-03T07:57:02.030Z,3.63
2022-11-03T07:59:34.280Z,3.70
2022-11-03T08:02:15.989Z,3.42
2022-11-03T08:04:44.167Z,4.22
2022-11-03T08:07:15.556Z,3.38
2022-11-03T08:09:43.906Z,3.95
2022-11-03T08:12:12.147Z,4.22
2022-11-03T08:14:40.379Z,3.90
2022-11-03T08:17:09.947Z,4.18
2022-11-03T08:19:38.231Z,3.90
2022-11-03T08:22:06.491Z,3.65
2022-11-03T08:24:34.665Z,3.70
2022-11-03T08:27:03.576Z,3.50
2022-11-03T08:29:31.829Z,3.35
2022-11-03T08:31:59.918Z,3.80
2022-11-03T08:34:29.523Z,3.90
2022-11-03T08:36:57.975Z,3.78
2022-11-03T08:39:26.025Z,3.25
2022-11-03T08:41:54.304Z,3.75
2022-11-03T08:44:22.677Z,3.10
2022-11-03T08:46:50.758Z,3.33
2022-11-03T08:49:18.830Z,3.53
2022-11-03T08:51:48.461Z,3.67
2022-11-03T08:54:16.591Z,3.08
2022-11-03T08:56:46.744Z,3.45
2022-11-03T08:59:15.152Z,3.28
2022-11-03T09:01:44.987Z,3.13
2022-11-03T09:04:13.276Z,3.15
2022-11-03T09:06:41.809Z,3.40
2022-11-03T09:11:59.581Z,3.70
2022-11-03T09:14:27.784Z,3.15
2022-11-03T09:16:55.968Z,3.40
2022-11-03T09:19:24.277Z,3.30
2022-11-03T09:21:53.010Z,3.45
2022-11-03T09:24:22.693Z,3.58
2022-11-03T09:26:50.966Z,3.55
2022-11-03T09:29:19.144Z,3.38
2022-11-03T09:31:47.420Z,3.40
2022-11-03T09:34:15.693Z,3.25
2022-11-03T09:36:45.279Z,3.33
2022-11-03T09:39:15.131Z,3.40
2022-11-03T09:41:58.144Z,3.72
2022-11-03T09:44:27.200Z,4.10
2022-11-03T09:49:43.957Z,3.70
2022-11-03T09:52:16.973Z,3.50
2022-11-03T09:53:48.028Z,3.88
2022-11-03T09:54:45.118Z,3.55
2022-11-03T09:57:18.138Z,3.42
2022-11-03T09:59:48.268Z,2.95
2022-11-03T10:02:23.162Z,3.08
2022-11-03T10:04:52.930Z,3.25
2022-11-03T10:07:22.068Z,3.30
2022-11-03T10:09:53.079Z,2.92
2022-11-03T10:12:24.302Z,3.15
2022-11-03T10:14:53.623Z,3.03
2022-11-03T10:17:26.930Z,3.13
2022-11-03T10:19:57.738Z,3.60
2022-11-03T10:22:26.010Z,2.90
2022-11-03T10:25:31.209Z,3.20
2022-11-03T10:28:22.742Z,2.83
2022-11-03T10:33:42.642Z,3.05
2022-11-03T10:36:25.079Z,2.85
2022-11-03T10:38:53.960Z,3.15
2022-11-03T10:41:23.979Z,2.65
2022-11-03T10:44:04.883Z,2.83
2022-11-03T10:46:50.183Z,3.00
2022-11-03T10:49:21.082Z,2.80
2022-11-03T10:51:51.596Z,2.88
2022-11-03T10:54:22.097Z,2.50
2022-11-03T10:56:51.981Z,2.50
2022-11-03T10:59:24.337Z,2.60
2022-11-03T11:01:53.191Z,2.85
2022-11-03T11:04:22.138Z,2.30
2022-11-03T11:06:50.572Z,2.70
2022-11-03T11:09:23.407Z,2.70
2022-11-03T11:12:02.669Z,2.60
2022-11-03T11:14:40.328Z,2.33
2022-11-03T11:17:42.089Z,2.50
2022-11-03T11:20:31.184Z,2.40
2022-11-03T11:23:32.271Z,2.78
2022-11-03T11:26:14.410Z,2.00
2022-11-03T11:28:43.955Z,2.60
2022-11-03T11:31:33.510Z,2.38
2022-11-03T11:34:41.315Z,2.40
2022-11-03T11:37:36.207Z,2.53
2022-11-03T11:40:13.225Z,2.63
2022-11-03T11:43:14.808Z,2.67
2022-11-03T11:46:20.397Z,2.60
2022-11-03T11:49:03.123Z,2.25
2022-11-03T11:51:35.609Z,2.60
2022-11-03T11:54:17.436Z,2.10
2022-11-03T11:56:48.537Z,2.42
2022-11-03T11:59:24.713Z,2.40
2022-11-03T12:01:56.708Z,2.28
2022-11-03T12:04:31.450Z,2.42
2022-11-03T12:07:00.125Z,2.40
2022-11-03T12:09:29.361Z,2.47
2022-11-03T12:12:04.974Z,2.33
2022-11-03T12:14:36.401Z,2.55
2022-11-03T12:17:32.944Z,2.38
2022-11-03T12:20:22.649Z,2.53
2022-11-03T12:22:50.841Z,2.65
2022-11-03T12:25:37.085Z,2.42
2022-11-03T12:28:05.632Z,2.10
2022-11-03T12:30:39.455Z,2.40
2022-11-03T12:33:08.891Z,2.50
2022-11-03T12:35:38.906Z,2.00
2022-11-03T12:38:07.028Z,2.70
2022-11-03T12:40:35.697Z,2.20
2022-11-03T12:43:03.911Z,2.15
2022-11-03T12:45:32.235Z,2.30
2022-11-03T12:48:00.739Z,2.45
2022-11-03T12:50:29.253Z,2.40
2022-11-03T12:52:58.759Z,2.30
2022-11-03T12:57:56.269Z,2.45
2022-11-03T13:00:25.018Z,2.30
2022-11-03T13:02:53.590Z,2.63
2022-11-03T13:05:21.903Z,2.20
2022-11-03T13:07:50.127Z,2.67
2022-11-03T13:10:19.780Z,2.67
2022-11-03T13:12:48.221Z,2.50
2022-11-03T13:15:16.965Z,2.72
2022-11-03T13:18:11.737Z,2.67
2022-11-03T13:20:33.609Z,2.90
2022-11-03T13:23:01.745Z,2.70
2022-11-03T13:25:31.978Z,2.60
2022-11-03T13:28:03.060Z,3.38
2022-11-03T13:30:33.568Z,3.10
2022-11-03T13:33:02.027Z,2.85
2022-11-03T13:35:30.484Z,2.70
2022-11-03T13:37:58.685Z,2.60
2022-11-03T13:40:54.742Z,2.72
2022-11-03T13:43:16.720Z,3.00
2022-11-03T13:45:45.134Z,3.45
2022-11-03T13:51:01.932Z,3.22
2022-11-03T13:56:23.423Z,3.05
2022-11-03T14:01:42.080Z,3.45
2022-11-03T14:06:58.977Z,3.13
2022-11-03T14:09:27.313Z,3.13
2022-11-03T14:12:13.082Z,3.22
2022-11-03T14:14:42.720Z,3.28
2022-11-03T14:17:11.029Z,3.20
2022-11-03T14:19:44.817Z,3.15
2022-11-03T14:22:15.760Z,3.55
2022-11-03T14:24:44.493Z,2.78
2022-11-03T14:27:12.923Z,3.20
2022-11-03T14:29:43.541Z,3.20
2022-11-03T14:32:12.041Z,3.47
2022-11-03T14:34:40.245Z,3.53
2022-11-03T14:37:09.200Z,3.08
2022-11-03T14:39:37.711Z,3.35
2022-11-03T14:42:05.566Z,3.67
2022-11-03T14:44:35.049Z,2.90
2022-11-03T14:47:07.039Z,3.67
2022-11-03T14:49:36.176Z,3.40
2022-11-03T14:52:05.550Z,3.80
2022-11-03T14:54:34.148Z,3.90
2022-11-03T14:57:03.056Z,3.70
2022-11-03T14:59:31.133Z,3.90
2022-11-03T15:02:00.305Z,3.85
2022-11-03T15:04:30.307Z,3.78
2022-11-03T15:06:58.684Z,3.55
2022-11-03T15:09:26.946Z,3.55
2022-11-03T15:11:55.201Z,4.22
2022-11-03T15:14:23.739Z,3.60
2022-11-03T15:16:51.918Z,3.60
2022-11-03T15:19:20.182Z,3.90
2022-11-03T15:21:49.939Z,4.22
2022-11-03T15:27:06.428Z,4.40
2022-11-03T15:29:34.580Z,4.68
2022-11-03T15:32:02.805Z,4.80
2022-11-03T15:34:31.193Z,4.05
2022-11-03T15:37:00.737Z,5.20
2022-11-03T15:39:29.903Z,5.15
2022-11-03T15:42:00.217Z,5.25
2022-11-03T15:44:28.463Z,4.90
2022-11-03T15:46:56.712Z,5.65
2022-11-03T15:49:25.197Z,5.22
2022-11-03T15:51:53.575Z,5.45
2022-11-03T15:54:23.190Z,5.40
2022-11-03T15:56:51.560Z,5.57
2022-11-03T15:59:19.974Z,4.97
2022-11-03T16:01:48.473Z,5.80
2022-11-03T16:04:17.421Z,6.30
2022-11-03T16:09:35.284Z,6.80
2022-11-03T16:12:03.609Z,6.20
2022-11-03T16:14:32.256Z,6.18
2022-11-03T16:17:00.662Z,5.75
2022-11-03T16:19:29.094Z,6.75
2022-11-03T16:21:57.316Z,6.10
2022-11-03T16:24:33.308Z,6.55
2022-11-03T16:27:05.324Z,7.13
2022-11-03T16:29:33.457Z,6.15
2022-11-03T16:32:01.640Z,5.72
2022-11-03T16:34:29.798Z,5.90
2022-11-03T16:36:57.963Z,6.10
2022-11-03T16:39:26.294Z,5.93
2022-11-03T16:41:55.178Z,5.78
2022-11-03T16:44:24.790Z,5.38
2022-11-03T16:46:53.327Z,5.72
2022-11-03T16:49:21.935Z,5.85
2022-11-03T16:51:50.293Z,6.22
2022-11-03T16:54:18.496Z,6.22
2022-11-03T16:56:54.297Z,5.43
2022-11-03T16:59:26.432Z,5.47
2022-11-03T17:01:55.535Z,5.75
2022-11-03T17:04:23.988Z,5.70
2022-11-03T17:06:52.234Z,5.47
2022-11-03T17:09:21.049Z,6.80
2022-11-03T17:11:49.330Z,6.07
2022-11-03T17:14:17.448Z,6.43
2022-11-03T17:16:48.490Z,5.93
2022-11-03T17:19:17.128Z,6.57
2022-11-03T17:21:45.528Z,6.10
2022-11-03T17:24:13.697Z,6.47
2022-11-03T17:26:55.817Z,6.95
2022-11-03T17:29:29.172Z,6.45
2022-11-03T17:31:59.085Z,6.88
2022-11-03T17:34:27.380Z,6.63
2022-11-03T17:36:55.657Z,6.65
2022-11-03T17:39:29.754Z,5.95
2022-11-03T17:42:12.092Z,6.30
2022-11-03T17:44:40.335Z,5.60
2022-11-03T17:47:10.052Z,5.43
2022-11-03T17:49:38.493Z,5.07
2022-11-03T17:52:07.621Z,6.00
2022-11-03T17:54:35.886Z,5.93
2022-11-03T17:57:05.420Z,6.15
2022-11-03T17:59:34.659Z,5.88
2022-11-03T18:02:03.885Z,5.32
2022-11-03T18:04:33.451Z,5.00
2022-11-03T18:07:01.835Z,4.28
2022-11-03T18:09:30.248Z,4.40
2022-11-03T18:12:15.797Z,4.72
2022-11-03T18:14:44.196Z,5.40
2022-11-03T18:17:12.364Z,4.75
2022-11-03T18:19:41.849Z,5.28
2022-11-03T18:22:10.490Z,4.32
2022-11-03T18:24:38.629Z,4.28
2022-11-03T18:27:11.922Z,4.18
2022-11-03T18:29:40.026Z,3.50
2022-11-03T18:32:15.487Z,2.88
2022-11-03T18:34:45.176Z,2.83
2022-11-03T18:37:13.898Z,2.85
2022-11-03T18:39:42.391Z,3.05
2022-11-03T18:42:15.355Z,3.80
2022-11-03T18:44:44.580Z,4.50
2022-11-03T18:47:12.882Z,4.43
2022-11-03T18:49:41.256Z,5.25
2022-11-03T18:52:15.711Z,5.88
2022-11-03T18:54:47.016Z,5.55
2022-11-03T18:57:16.612Z,6.22
2022-11-03T18:59:46.075Z,5.10
2022-11-03T19:02:18.932Z,4.72
2022-11-03T19:04:47.612Z,4.07
2022-11-03T19:07:19.191Z,2.47
2022-11-03T19:09:47.556Z,2.17
2022-11-03T19:12:16.623Z,1.80
2022-11-03T19:14:46.422Z,1.85
2022-11-03T19:17:23.037Z,1.80
2022-11-03T19:19:52.291Z,1.40
2022-11-03T19:22:23.509Z,1.30
2022-11-03T19:24:51.833Z,1.27
2022-11-03T19:27:23.951Z,1.65
2022-11-03T19:29:52.297Z,1.10
2022-11-03T19:32:24.987Z,1.40
2022-11-03T19:34:58.022Z,1.25
2022-11-03T19:37:32.577Z,1.10
2022-11-03T19:40:05.975Z,1.70
2022-11-03T19:42:36.886Z,1.38
2022-11-03T19:45:07.192Z,1.10
2022-11-03T19:47:47.884Z,1.40
2022-11-03T19:50:25.173Z,1.77
2022-11-03T19:52:56.119Z,1.60
2022-11-03T19:55:29.462Z,1.60
2022-11-03T19:58:01.962Z,1.55
2022-11-03T20:00:31.597Z,1.33
2022-11-03T20:02:59.724Z,1.55
2022-11-03T20:05:27.908Z,1.63
2022-11-03T20:08:00.709Z,2.22
2022-11-03T20:10:31.735Z,2.13
2022-11-03T20:13:04.235Z,2.38
2022-11-03T20:15:32.531Z,3.45
2022-11-03T20:18:00.706Z,3.75
2022-11-03T20:20:35.180Z,4.30
2022-11-03T20:23:06.414Z,4.93
2022-11-03T20:25:36.872Z,5.60
2022-11-03T20:28:17.336Z,5.70
2022-11-03T20:30:45.886Z,6.20
2022-11-03T20:33:16.709Z,7.10
2022-11-03T20:35:45.598Z,6.82
2022-11-03T20:38:19.027Z,7.75
2022-11-03T20:40:49.141Z,7.85
2022-11-03T20:43:26.324Z,8.70
2022-11-03T20:45:54.907Z,8.38
2022-11-03T20:48:23.747Z,8.10
2022-11-03T20:50:52.737Z,7.47
2022-11-03T20:53:25.250Z,7.50
2022-11-03T20:55:54.660Z,5.88
2022-11-03T20:58:23.023Z,5.80
2022-11-03T21:00:51.902Z,5.25
2022-11-03T21:03:58.068Z,5.47
2022-11-03T21:06:12.376Z,5.28
2022-11-03T21:08:42.298Z,5.63
2022-11-03T21:11:28.335Z,5.72
2022-11-03T21:13:58.405Z,5.20
2022-11-03T21:16:45.388Z,4.70
2022-11-03T21:19:39.966Z,5.15
2022-11-03T21:25:07.632Z,4.68
2022-11-03T21:27:39.305Z,4.57
2022-11-03T21:30:12.254Z,4.82
2022-11-03T21:32:40.656Z,4.75
2022-11-03T21:35:13.110Z,5.43
2022-11-03T21:37:41.390Z,4.97
2022-11-03T21:40:12.702Z,5.00
2022-11-03T21:42:58.055Z,5.38
2022-11-03T21:45:26.552Z,5.53
2022-11-03T21:48:14.373Z,5.57
2022-11-03T21:50:43.785Z,5.30
2022-11-03T21:53:12.545Z,5.05
2022-11-03T21:55:42.486Z,5.38
2022-11-03T21:58:10.868Z,5.15
2022-11-03T22:00:38.982Z,5.07
2022-11-03T22:03:07.635Z,4.90
2022-11-03T22:05:36.003Z,4.85
2022-11-03T22:08:04.265Z,4.57
2022-11-03T22:10:32.584Z,4.50
2022-11-03T22:13:02.042Z,4.75
2022-11-03T22:15:47.368Z,3.95
2022-11-03T22:18:17.292Z,3.70
2022-11-03T22:21:02.751Z,3.70
2022-11-03T22:23:48.221Z,3.60
2022-11-03T22:26:35.462Z,3.85
2022-11-03T22:29:22.356Z,3.70
2022-11-03T22:31:50.580Z,3.45
2022-11-03T22:34:36.009Z,4.32
2022-11-03T22:37:04.150Z,4.50
2022-11-03T22:39:58.188Z,4.00
2022-11-03T22:45:35.868Z,3.95
2022-11-03T22:48:05.033Z,3.60
2022-11-03T22:50:33.349Z,3.67
2022-11-03T22:53:21.819Z,3.78
2022-11-03T22:55:49.028Z,3.63
2022-11-03T22:58:17.369Z,3.90
2022-11-03T23:00:47.596Z,4.40
2022-11-03T23:03:15.944Z,3.90
2022-11-03T23:05:44.057Z,4.45
2022-11-03T23:08:12.203Z,4.20
2022-11-03T23:10:40.558Z,5.50
2022-11-03T23:13:09.127Z,5.18
2022-11-03T23:15:43.540Z,4.45
2022-11-03T23:18:30.727Z,4.40
2022-11-03T23:21:08.095Z,4.60
2022-11-03T23:23:55.212Z,4.57
2022-11-03T23:26:25.169Z,4.05
2022-11-03T23:28:53.302Z,4.30
2022-11-03T23:31:21.653Z,4.55
2022-11-03T23:33:51.546Z,3.88
2022-11-03T23:36:19.820Z,4.15
2022-11-03T23:38:47.972Z,4.07
2022-11-03T23:41:17.746Z,4.30
2022-11-03T23:43:46.888Z,4.38
2022-11-03T23:46:34.312Z,3.60
2022-11-03T23:49:04.773Z,3.67
2022-11-03T23:51:34.471Z,3.80
2022-11-03T23:54:04.289Z,3.58
2022-11-03T23:56:56.430Z,3.40
2022-11-03T23:59:25.205Z,3.50
